Narita International Airport
RJAA : now visible

Airfield :











YOU CAN JOIN US ON...

 
LOGIN :

Register | Disclaimer

   EN    FR    IT 

 









Legend :    VFR   Marginal VFR   IFR   Intensive IFR   Very Intensive IFR
Visi :
Ceiling :
>= 8 km
>= 3000ft
5 to 8 km
1000 to 3000 ft
1500m to 5 km
500 to 1000 ft
800 to 1500m
200 to 500 ft
< 800m
< 200 ft
Symbols :   Thunderstorms  Fog  Heavy snow  Heavy precipitations  Wind > 20 kt






- Airport Elevation : 141 ft
- IATA code : NRT


RJAA - Narita International

CURRENT METAR :
  • 170230Z 09008KT 060V140 9999 FEW015 SCT025 BKN/// 28/23 Q1008 NOSIG RMK 1CU015 4CU025 A2977

EXPIRED METARs :
  • 170200Z 11008KT 090V150 9999 FEW015 SCT025 BKN/// 28/23 Q1008 NOSIG RMK 1CU015 4CU025 A2977
  • 170130Z 10006KT 050V180 9999 FEW015 SCT025 BKN/// 28/22 Q1008 NOSIG RMK 1CU015 4CU025 A2977
  • 170100Z 11005KT 050V170 9999 FEW015 BKN025 BKN/// 29/24 Q1008 NOSIG
  • 170030Z 08004KT 050V140 9999 FEW015 SCT020 BKN030 27/23 Q1008 NOSIG RMK 1CU015 4CU020 6CU030 A2977
  • 170000Z 04004KT 350V090 9999 FEW012 BKN015 BKN/// 26/23 Q1008 NOSIG RMK 1CU012 5CU015 A2977
  • 162330Z 07003KT 020V140 9999 FEW012 BKN015 26/23 Q1008 NOSIG RMK 2CU012 7CU015 A2977
  • 162300Z 06004KT 010V110 9999 SCT012 BKN/// 26/23 Q1007 NOSIG
  • 162230Z 03005KT 9999 FEW010 BKN/// 26/23 Q1007 NOSIG
  • 162200Z 35004KT 320V030 9999 FEW020 BKN/// 25/22 Q1007 NOSIG RMK 1CU020 A2975

TAF TAF RJAA
Valid from the 17 at 00:00 until the 18 at 06:00 UTC


162305Z 1700/1806 02005KT 9999 FEW015 SCT030
BECMG 1701/1703 14010KT
BECMG 1718/1721 04006KT 2500 SHRA BR FEW002 BKN005
BECMG 1800/1803 09006KT
BECMG 1803/1806 18016KT
RJJJ FIR / Asia



MET'MAP, your aeronautical weather chart ! - Copyright ORBIFLY December 2007 - Disclaimer

ORBIFLY MET'MAP TEAM :

Programming & Development : Alexandra Zaïnal
Original concept : Baudouin d'Aumeries
Technical & hardware support : Manuel Goepfert
Assistance : Marc-Olivier Méhu




SOURCES & CREDITS :

   NOAA       Earth
Advisory